Detalii statie SOMALEX GHIMPATI [0000198E]

Toti senzorii

Date Temperatura solului [C]Precipitatii [mm]Voltaj baterie [mV]Leaf Wetness [Min]HC Air temperature [C]HC Relative humidity [%]Punctul de roua [C]
medieminmaxsumaultimatimpmedieminmaxmediemediemin
2018-06-20 10:00:00 22.8 22.7 23 0 7176 30.62 30.49 30.76 0 0 0
2018-06-20 10:10:00 22.7 22.7 22.7 0 6992 31.23 31.21 31.25 0 0 0
2018-06-20 10:20:00 22.8 22.7 23 0 7246 31.72 31.66 31.79 0 0 0
2018-06-20 10:30:00 23.1 23 23.2 0 7138 31.47 31.45 31.49 0 0 0
2018-06-20 10:40:00 23 23 23 0 7236 31.59 31.53 31.65 0 0 0
2018-06-20 10:50:00 22.9 22.8 23.1 0 7128 31.42 31.38 31.47 0 0 0
2018-06-20 11:00:00 23 23 23.1 0 7216 31.55 31.45 31.65 0 0 0
2018-06-20 11:10:00 22.9 22.8 23.1 0 6952 31.99 31.94 32.05 0 0 0
2018-06-20 11:20:00 23.1 23.1 23.1 0 7020 32.04 32.01 32.07 0 0 0
2018-06-20 11:30:00 22.9 22.8 23.1 0 7246 31.55 31.12 31.99 0 0 0
2018-06-20 11:40:00 23.1 23.1 23.1 0 7108 31.85 31.71 31.99 0 0 0
2018-06-20 11:50:00 23.1 23.1 23.2 0 7246 31.99 31.86 32.12 0 0 0
2018-06-20 12:00:00 23.2 23.1 23.3 0 7166 32.41 32.2 32.62 0 0 0
2018-06-20 12:10:00 23.2 23.2 23.2 0 7254 31.97 31.82 32.13 0 0 0
2018-06-20 12:20:00 23.2 23.2 23.2 0 7254 32.62 32.62 32.63 0 0 0
2018-06-20 12:30:00 23.2 23.2 23.3 0 7254 32.7 32.68 32.72 0 0 0
2018-06-20 12:40:00 23.2 23.2 23.2 0 7236 33.19 32.99 33.39 0 0 0
2018-06-20 12:50:00 23.2 23.2 23.2 0 7236 33.89 33.41 34.38 0 0 0
2018-06-20 13:00:00 23.1 23.1 23.2 0 7206 33.91 32.99 34.84 0 0 0
2018-06-20 13:10:00 23.3 23.3 23.4 0 6952 34 33.86 34.15 0 0 0
2018-06-20 13:20:00 23.3 23.3 23.3 0 7236 34.41 34.39 34.44 0 0 0
2018-06-20 13:30:00 23.4 23.4 23.4 0 6972 33.87 33.87 33.87 0 0 0
2018-06-20 13:40:00 23.6 23.6 23.7 0 7196 34.97 34.6 35.34 0 0 0
2018-06-20 13:50:00 23.7 23.6 23.8 0 7236 35.79 35.56 36.02 0 0 0
2018-06-20 14:00:00 23.7 23.6 23.8 0 7050 10 34.86 34.8 34.92 0 0 0
2018-06-20 14:10:00 23.8 23.8 23.8 0 6972 35.09 34.67 35.51 0 0 0
2018-06-20 14:20:00 23.8 23.7 23.9 0 7246 34.41 34.27 34.55 0 0 0
2018-06-20 14:30:00 23.8 23.7 23.9 0 7158 33.5 33.23 33.78 0 0 0
2018-06-20 14:40:00 24 24 24.1 0 7246 33.72 33.51 33.93 0 0 0
2018-06-20 14:50:00 24.2 24.2 24.3 0 7246 34.19 34.19 34.19 0 0 0
2018-06-20 15:00:00 24.3 24.3 24.4 0 7138 10 34.42 34.3 34.55 0 0 0
2018-06-20 15:10:00 24.6 24.5 24.7 0 6962 35.51 35.42 35.6 0 0 0
2018-06-20 15:20:00 24.7 24.7 24.7 0 6914 33.82 33.4 34.24 0 0 0
2018-06-20 15:30:00 24.9 24.8 25 0 6932 10 33.94 33.94 33.95 0 0 0
2018-06-20 15:40:00 25 25 25.1 0 6904 33.76 33.68 33.84 0 0 0
2018-06-20 15:50:00 25.1 25.1 25.1 0 6884 33.84 33.8 33.88 0 0 0
2018-06-20 16:00:00 25.2 25.1 25.3 0 6904 33.5 33.38 33.63 0 0 0
2018-06-20 16:10:00 25.1 25.1 25.2 0 6894 10 33.5 33.39 33.62 0 0 0
2018-06-20 16:20:00 25.2 25.2 25.3 0 6884 33.78 33.44 34.13 0 0 0
2018-06-20 16:30:00 25.3 25.3 25.3 0 6874 34.14 33.88 34.4 0 0 0
2018-06-20 16:40:00 25.3 25.3 25.3 0 6894 33.66 33.57 33.76 0 0 0
2018-06-20 16:50:00 25.4 25.3 25.5 0 6884 10 34.27 34.23 34.32 0 0 0
2018-06-20 17:00:00 25.3 25.3 25.3 0 6874 33.52 33.34 33.71 0 0 0
2018-06-20 17:10:00 25.3 25.3 25.3 0 6874 33.39 33.15 33.63 0 0 0
2018-06-20 17:20:00 25.5 25.5 25.5 0 6894 34.03 33.98 34.08 0 0 0
2018-06-20 17:30:00 25.4 25.3 25.5 0 6884 10 33.7 33.58 33.83 0 0 0
2018-06-20 17:40:00 25.2 25.1 25.3 0 6864 33.49 33.28 33.7 0 0 0
2018-06-20 17:50:00 25.3 25.3 25.4 0 6864 33.13 32.99 33.27 0 0 0